createdAt,value
2019-01-18T00:00:03.554Z,87.90
2019-01-18T00:02:35.608Z,87.81
2019-01-18T00:05:07.986Z,88.08
2019-01-18T00:07:40.298Z,88.18
2019-01-18T00:10:12.426Z,88.42
2019-01-18T00:12:44.578Z,88.72
2019-01-18T00:15:16.759Z,88.88
2019-01-18T00:17:49.776Z,88.91
2019-01-18T00:20:25.092Z,89.10
2019-01-18T00:22:57.616Z,88.54
2019-01-18T00:25:30.507Z,88.18
2019-01-18T00:28:02.557Z,88.22
2019-01-18T00:30:34.537Z,88.43
2019-01-18T00:33:06.542Z,88.43
2019-01-18T00:35:42.089Z,88.49
2019-01-18T00:38:14.082Z,88.57
2019-01-18T00:40:46.988Z,89.02
2019-01-18T00:43:18.910Z,89.28
2019-01-18T00:45:50.811Z,89.29
2019-01-18T00:48:22.769Z,89.37
2019-01-18T00:50:54.674Z,89.51
2019-01-18T00:53:26.683Z,89.52
2019-01-18T00:55:58.632Z,89.57
2019-01-18T00:58:30.609Z,89.75
2019-01-18T01:01:02.642Z,89.29
2019-01-18T01:03:34.628Z,89.43
2019-01-18T01:06:09.564Z,89.63
2019-01-18T01:08:41.596Z,89.32
2019-01-18T01:11:13.649Z,89.48
2019-01-18T01:13:45.850Z,89.78
2019-01-18T01:16:19.667Z,90.04
2019-01-18T01:18:52.061Z,90.36
2019-01-18T01:21:23.996Z,90.44
2019-01-18T01:23:55.964Z,90.60
2019-01-18T01:26:27.883Z,90.32
2019-01-18T01:28:59.901Z,90.49
2019-01-18T01:31:31.912Z,90.53
2019-01-18T01:34:03.849Z,90.64
2019-01-18T01:36:35.769Z,90.68
2019-01-18T01:39:11.465Z,90.82
2019-01-18T01:41:43.412Z,90.78
2019-01-18T01:44:15.365Z,90.80
2019-01-18T01:46:47.344Z,90.70
2019-01-18T01:49:19.366Z,90.86
2019-01-18T01:51:51.264Z,91.06
2019-01-18T01:54:23.180Z,91.07
2019-01-18T01:56:55.062Z,91.14
2019-01-18T01:59:27.050Z,91.29
2019-01-18T02:01:58.944Z,91.47
2019-01-18T02:04:30.931Z,91.55
2019-01-18T02:07:03.025Z,91.67
2019-01-18T02:09:34.947Z,91.74
2019-01-18T02:12:06.876Z,91.81
2019-01-18T02:14:38.797Z,91.85
2019-01-18T02:17:10.755Z,91.89
2019-01-18T02:19:42.839Z,92.01
2019-01-18T02:22:14.771Z,92.11
2019-01-18T02:24:46.814Z,92.28
2019-01-18T02:27:18.708Z,92.35
2019-01-18T02:29:56.427Z,92.33
2019-01-18T02:32:24.140Z,92.26
2019-01-18T02:34:56.022Z,92.21
2019-01-18T02:37:27.884Z,92.06
2019-01-18T02:39:59.830Z,91.90
2019-01-18T02:42:31.727Z,91.78
2019-01-18T02:45:03.590Z,91.78
2019-01-18T02:47:35.475Z,91.91
2019-01-18T02:50:09.612Z,92.00
2019-01-18T02:52:41.609Z,92.00
2019-01-18T02:55:14.770Z,91.94
2019-01-18T02:57:46.626Z,91.67
2019-01-18T03:00:24.244Z,91.56
2019-01-18T03:02:56.149Z,91.53
2019-01-18T03:05:28.886Z,91.46
2019-01-18T03:08:03.229Z,91.31
2019-01-18T03:10:35.239Z,90.80
2019-01-18T03:13:07.102Z,90.49
2019-01-18T03:15:38.987Z,90.35
2019-01-18T03:18:10.875Z,90.41
2019-01-18T03:20:42.803Z,90.10
2019-01-18T03:23:15.160Z,90.05
2019-01-18T03:25:47.067Z,89.64
2019-01-18T03:28:18.908Z,89.78
2019-01-18T03:30:51.046Z,90.00
2019-01-18T03:33:23.020Z,90.19
2019-01-18T03:35:54.887Z,90.31
2019-01-18T03:38:26.840Z,90.35
2019-01-18T03:40:58.729Z,90.33
2019-01-18T03:43:30.634Z,90.42
2019-01-18T03:46:02.703Z,90.48
2019-01-18T03:48:34.591Z,90.55
2019-01-18T03:51:06.474Z,90.62
2019-01-18T03:53:38.427Z,90.62
2019-01-18T03:56:10.273Z,90.70
2019-01-18T03:58:42.149Z,90.72
2019-01-18T04:01:14.041Z,90.78
2019-01-18T04:03:45.902Z,90.90
2019-01-18T04:06:19.447Z,90.96
2019-01-18T04:08:51.316Z,91.07
2019-01-18T04:11:23.198Z,91.15
2019-01-18T04:13:55.587Z,91.21
2019-01-18T04:16:27.972Z,91.29
2019-01-18T04:18:59.827Z,91.48
2019-01-18T04:21:33.377Z,91.54
2019-01-18T04:24:05.660Z,91.55
2019-01-18T04:26:37.553Z,91.66
2019-01-18T04:29:09.511Z,91.60
2019-01-18T04:31:41.366Z,91.61
2019-01-18T04:34:13.241Z,91.67
2019-01-18T04:36:45.152Z,91.63
2019-01-18T04:39:17.071Z,91.72
2019-01-18T04:41:50.527Z,91.97
2019-01-18T04:44:23.443Z,92.21
2019-01-18T04:46:55.326Z,92.21
2019-01-18T04:49:27.191Z,92.23
2019-01-18T04:51:59.090Z,92.19
2019-01-18T04:54:32.577Z,92.22
2019-01-18T04:57:04.491Z,92.42
2019-01-18T04:59:36.569Z,92.57
2019-01-18T05:02:08.516Z,92.51
2019-01-18T05:04:44.354Z,92.47
2019-01-18T05:07:16.235Z,92.34
2019-01-18T05:09:48.075Z,92.23
2019-01-18T05:12:19.992Z,91.97
2019-01-18T05:14:51.863Z,91.75
2019-01-18T05:17:23.698Z,91.90
2019-01-18T05:19:55.577Z,92.25
2019-01-18T05:22:27.416Z,92.72
2019-01-18T05:24:59.240Z,92.85
2019-01-18T05:27:31.131Z,93.12
2019-01-18T05:30:03.023Z,92.64
2019-01-18T05:32:34.897Z,92.45
2019-01-18T05:35:08.333Z,92.12
2019-01-18T05:37:40.295Z,92.03
2019-01-18T05:40:14.622Z,92.09
2019-01-18T05:42:46.731Z,92.95
2019-01-18T05:45:20.641Z,93.48
2019-01-18T05:47:52.344Z,93.78
2019-01-18T05:50:27.220Z,94.17
2019-01-18T05:53:00.862Z,93.94
2019-01-18T05:55:32.181Z,93.57
2019-01-18T05:58:03.594Z,93.60
2019-01-18T06:00:55.212Z,93.55
2019-01-18T06:03:23.825Z,93.55
2019-01-18T06:05:55.106Z,93.13
2019-01-18T06:08:26.439Z,93.60
2019-01-18T06:10:57.761Z,93.66
2019-01-18T06:13:32.448Z,93.99
2019-01-18T06:16:03.980Z,94.36
2019-01-18T06:18:35.338Z,94.56
2019-01-18T06:21:06.678Z,94.62
2019-01-18T06:23:38.013Z,94.71
2019-01-18T06:26:09.286Z,94.36
2019-01-18T06:28:40.711Z,94.23
2019-01-18T06:31:12.077Z,94.46
2019-01-18T06:33:43.454Z,94.55
2019-01-18T06:36:14.821Z,94.56
2019-01-18T06:38:46.160Z,94.62
2019-01-18T06:41:23.205Z,94.63
2019-01-18T06:43:54.525Z,94.69
2019-01-18T06:46:27.992Z,94.79
2019-01-18T06:49:00.183Z,94.86
2019-01-18T06:51:35.079Z,94.98
2019-01-18T06:54:06.983Z,95.08
2019-01-18T06:56:41.843Z,95.11
2019-01-18T06:59:16.810Z,95.04
2019-01-18T07:01:48.697Z,95.05
2019-01-18T07:04:20.599Z,95.05
2019-01-18T07:06:54.349Z,94.81
2019-01-18T07:09:27.959Z,94.38
2019-01-18T07:11:59.864Z,93.92
2019-01-18T07:14:33.459Z,94.07
2019-01-18T07:17:20.948Z,94.06
2019-01-18T07:19:52.820Z,94.25
2019-01-18T07:22:24.779Z,94.37
2019-01-18T07:24:58.470Z,94.60
2019-01-18T07:27:30.383Z,94.60
2019-01-18T07:30:02.259Z,94.29
2019-01-18T07:32:34.210Z,94.29
2019-01-18T07:35:06.629Z,94.45
2019-01-18T07:37:38.530Z,94.55
2019-01-18T07:40:12.899Z,94.76
2019-01-18T07:42:46.592Z,94.91
2019-01-18T07:45:24.806Z,94.03
2019-01-18T07:47:56.776Z,91.98
2019-01-18T07:50:28.853Z,87.79
2019-01-18T07:53:00.791Z,83.66
2019-01-18T07:55:32.675Z,80.71
2019-01-18T07:58:07.318Z,75.79
2019-01-18T08:00:41.261Z,72.45
2019-01-18T08:03:13.094Z,69.58
2019-01-18T08:05:44.976Z,65.90
2019-01-18T08:08:16.826Z,62.89
2019-01-18T08:10:48.719Z,59.67
2019-01-18T08:13:20.565Z,54.47
2019-01-18T08:15:52.470Z,53.25
2019-01-18T08:18:24.319Z,50.23
2019-01-18T08:20:56.138Z,49.02
2019-01-18T08:23:28.011Z,47.19
2019-01-18T08:25:59.901Z,44.99
2019-01-18T08:28:31.807Z,42.41
2019-01-18T08:31:03.692Z,40.66
2019-01-18T08:33:35.562Z,39.47
2019-01-18T08:36:07.619Z,38.18
2019-01-18T08:38:39.479Z,36.01
2019-01-18T08:41:11.323Z,35.39
2019-01-18T08:43:43.173Z,34.18
2019-01-18T08:46:16.991Z,32.75
2019-01-18T08:48:48.905Z,30.79
2019-01-18T08:51:20.734Z,29.65
2019-01-18T08:53:52.597Z,29.07
2019-01-18T08:56:24.492Z,29.04
2019-01-18T08:58:56.366Z,27.62
2019-01-18T09:01:28.281Z,26.52
2019-01-18T09:04:00.156Z,27.37
2019-01-18T09:06:31.991Z,26.68
2019-01-18T09:09:05.400Z,26.66
2019-01-18T09:11:37.271Z,26.51
2019-01-18T09:14:09.111Z,26.67
2019-01-18T09:16:41.038Z,26.37
2019-01-18T09:19:12.919Z,26.86
2019-01-18T09:21:44.829Z,25.28
2019-01-18T09:24:16.725Z,24.44
2019-01-18T09:26:48.630Z,24.97
2019-01-18T09:29:20.483Z,25.47
2019-01-18T09:31:52.454Z,25.48
2019-01-18T09:34:24.396Z,25.78
2019-01-18T09:36:56.298Z,24.51
2019-01-18T09:39:28.145Z,24.12
2019-01-18T09:42:00.061Z,23.17
2019-01-18T09:44:33.666Z,23.54
2019-01-18T09:47:07.261Z,23.37
2019-01-18T09:49:39.210Z,22.77
2019-01-18T09:52:11.063Z,22.24
2019-01-18T09:54:43.858Z,22.25
2019-01-18T09:57:15.981Z,22.05
2019-01-18T09:59:47.845Z,21.90
2019-01-18T10:02:19.775Z,22.46
2019-01-18T10:04:51.646Z,21.63
2019-01-18T10:07:24.461Z,20.98
2019-01-18T10:09:56.337Z,22.50
2019-01-18T10:12:28.214Z,23.14
2019-01-18T10:15:00.243Z,23.09
2019-01-18T10:17:32.099Z,22.26
2019-01-18T10:20:04.169Z,21.61
2019-01-18T10:22:36.027Z,21.99
2019-01-18T10:25:09.931Z,22.60
2019-01-18T10:27:41.802Z,22.16
2019-01-18T10:30:23.024Z,21.30
2019-01-18T10:32:54.948Z,22.91
2019-01-18T10:35:26.800Z,23.25
2019-01-18T10:37:58.627Z,23.29
2019-01-18T10:40:30.438Z,23.64
2019-01-18T10:43:02.339Z,23.45
2019-01-18T10:45:34.195Z,23.27
2019-01-18T10:48:06.054Z,23.77
2019-01-18T10:50:37.915Z,24.49
2019-01-18T10:53:09.754Z,24.57
2019-01-18T10:55:41.635Z,25.51
2019-01-18T10:58:13.646Z,26.48
2019-01-18T11:00:45.672Z,26.16
2019-01-18T11:03:17.563Z,27.92
2019-01-18T11:05:49.412Z,27.81
2019-01-18T11:08:21.238Z,26.42
2019-01-18T11:10:53.101Z,26.09
2019-01-18T11:13:25.012Z,25.77
2019-01-18T11:15:56.917Z,25.34
2019-01-18T11:18:28.789Z,24.61
2019-01-18T11:21:12.930Z,25.76
2019-01-18T11:23:44.960Z,27.08
2019-01-18T11:26:16.908Z,28.58
2019-01-18T11:28:48.813Z,30.01
2019-01-18T11:31:23.395Z,30.78
2019-01-18T11:33:54.289Z,30.46
2019-01-18T11:36:26.684Z,29.48
2019-01-18T11:38:58.581Z,28.69
2019-01-18T11:41:30.449Z,28.29
2019-01-18T11:44:02.334Z,28.39
2019-01-18T11:46:34.186Z,27.89
2019-01-18T11:49:06.065Z,27.46
2019-01-18T11:51:37.896Z,26.12
2019-01-18T11:54:09.804Z,25.51
2019-01-18T11:56:41.682Z,25.40
2019-01-18T11:59:13.562Z,25.36
2019-01-18T12:01:45.452Z,27.69
2019-01-18T12:04:17.353Z,26.91
2019-01-18T12:06:49.256Z,28.60
2019-01-18T12:09:21.885Z,27.93
2019-01-18T12:11:53.805Z,27.83
2019-01-18T12:14:25.692Z,27.28
2019-01-18T12:16:57.557Z,26.30
2019-01-18T12:19:29.565Z,27.69
2019-01-18T12:22:01.487Z,28.21
2019-01-18T12:24:33.338Z,29.91
2019-01-18T12:27:05.197Z,28.82
2019-01-18T12:29:37.912Z,28.90
2019-01-18T12:32:09.828Z,27.84
2019-01-18T12:34:41.743Z,28.77
2019-01-18T12:37:13.643Z,27.20
2019-01-18T12:39:45.557Z,29.33
2019-01-18T12:42:17.448Z,29.74
2019-01-18T12:44:49.890Z,31.19
2019-01-18T12:47:21.787Z,33.18
2019-01-18T12:49:54.545Z,32.28
2019-01-18T12:52:26.396Z,30.84
2019-01-18T12:54:58.288Z,31.58
2019-01-18T12:57:30.147Z,29.95
2019-01-18T13:00:02.028Z,28.85
2019-01-18T13:02:35.469Z,28.58
2019-01-18T13:05:12.054Z,26.49
2019-01-18T13:07:43.961Z,26.29
2019-01-18T13:10:15.783Z,25.12
2019-01-18T13:12:47.616Z,25.52
2019-01-18T13:15:24.814Z,27.48
2019-01-18T13:17:56.687Z,27.94
2019-01-18T13:20:29.387Z,25.65
2019-01-18T13:23:01.229Z,24.53
2019-01-18T13:25:33.115Z,25.33
2019-01-18T13:28:05.075Z,24.70
2019-01-18T13:30:37.363Z,26.85
2019-01-18T13:33:09.194Z,25.45
2019-01-18T13:35:41.124Z,25.79
2019-01-18T13:38:12.968Z,26.00
2019-01-18T13:40:44.813Z,26.20
2019-01-18T13:43:16.670Z,25.96
2019-01-18T13:45:48.518Z,25.73
2019-01-18T13:48:22.024Z,25.16
2019-01-18T13:50:53.873Z,26.19
2019-01-18T13:53:25.732Z,26.30
2019-01-18T13:55:57.604Z,25.70
2019-01-18T13:58:29.482Z,26.30
2019-01-18T14:01:01.412Z,26.20
2019-01-18T14:03:33.674Z,28.20
2019-01-18T14:06:05.663Z,29.78
2019-01-18T14:08:37.650Z,29.29
2019-01-18T14:11:17.288Z,29.40
2019-01-18T14:13:49.157Z,30.33
2019-01-18T14:16:21.420Z,29.32
2019-01-18T14:18:53.504Z,30.90
2019-01-18T14:21:25.414Z,31.45
2019-01-18T14:23:57.278Z,32.69
2019-01-18T14:26:29.086Z,34.02
2019-01-18T14:29:01.032Z,34.93
2019-01-18T14:31:32.860Z,35.65
2019-01-18T14:34:04.802Z,36.67
2019-01-18T14:36:36.562Z,37.80
2019-01-18T14:39:11.584Z,39.40
2019-01-18T14:41:43.458Z,41.35
2019-01-18T14:44:15.150Z,42.02
2019-01-18T14:46:46.888Z,42.95
2019-01-18T14:49:18.659Z,44.34
2019-01-18T14:51:50.564Z,44.76
2019-01-18T14:54:22.459Z,45.68
2019-01-18T14:56:54.321Z,47.21
2019-01-18T14:59:26.180Z,48.72
2019-01-18T15:01:58.072Z,48.02
2019-01-18T15:04:29.893Z,49.30
2019-01-18T15:07:01.758Z,50.41
2019-01-18T15:09:33.569Z,50.17
2019-01-18T15:12:05.623Z,51.06
2019-01-18T15:14:37.483Z,52.18
2019-01-18T15:17:09.320Z,53.06
2019-01-18T15:19:41.148Z,53.35
2019-01-18T15:22:13.018Z,53.07
2019-01-18T15:24:44.831Z,54.05
2019-01-18T15:27:16.676Z,53.64
2019-01-18T15:29:48.848Z,54.52
2019-01-18T15:32:20.674Z,53.68
2019-01-18T15:34:52.463Z,52.28
2019-01-18T15:37:24.225Z,53.09
2019-01-18T15:39:55.981Z,54.14
2019-01-18T15:42:27.834Z,53.78
2019-01-18T15:44:59.723Z,54.32
2019-01-18T15:47:31.559Z,54.50
2019-01-18T15:50:03.428Z,54.68
2019-01-18T15:52:35.345Z,55.53
2019-01-18T15:55:08.497Z,55.39
2019-01-18T15:57:40.648Z,56.59
2019-01-18T16:00:21.442Z,56.84
2019-01-18T16:02:53.211Z,57.72
2019-01-18T16:05:25.048Z,58.18
2019-01-18T16:07:56.822Z,58.87
2019-01-18T16:10:28.634Z,59.15
2019-01-18T16:13:00.473Z,60.58
2019-01-18T16:15:59.120Z,60.74
2019-01-18T16:18:31.921Z,60.57
2019-01-18T16:21:03.793Z,61.21
2019-01-18T16:23:35.678Z,62.15
2019-01-18T16:26:07.644Z,62.95
2019-01-18T16:28:39.541Z,63.01
2019-01-18T16:31:11.365Z,63.89
2019-01-18T16:33:43.214Z,64.59
2019-01-18T16:36:15.076Z,64.82
2019-01-18T16:38:46.975Z,65.63
2019-01-18T16:41:21.007Z,65.99
2019-01-18T16:43:52.878Z,66.76
2019-01-18T16:46:24.795Z,67.42
2019-01-18T16:48:56.632Z,67.82
2019-01-18T16:51:28.741Z,68.18
2019-01-18T16:54:00.654Z,68.16
2019-01-18T16:56:32.559Z,68.27
2019-01-18T16:59:04.420Z,68.40
2019-01-18T17:01:36.271Z,68.73
2019-01-18T17:04:08.149Z,68.70
2019-01-18T17:06:40.066Z,69.35
2019-01-18T17:09:11.926Z,69.23
2019-01-18T17:11:43.769Z,69.53
2019-01-18T17:14:15.677Z,69.96
2019-01-18T17:16:47.528Z,70.00
2019-01-18T17:19:19.378Z,69.98
2019-01-18T17:21:51.237Z,69.93
2019-01-18T17:24:23.094Z,69.87
2019-01-18T17:26:54.970Z,70.16
2019-01-18T17:29:26.861Z,69.71
2019-01-18T17:31:58.739Z,69.47
2019-01-18T17:34:30.600Z,69.20
2019-01-18T17:37:17.801Z,69.19
2019-01-18T17:40:28.803Z,69.59
2019-01-18T17:44:04.268Z,69.37
2019-01-18T17:47:02.632Z,69.32
2019-01-18T17:50:33.899Z,69.88
2019-01-18T17:54:05.245Z,69.88
2019-01-18T17:57:45.145Z,70.54
2019-01-18T18:01:23.140Z,70.79
2019-01-18T18:04:55.421Z,71.18
2019-01-18T18:08:17.622Z,71.37
2019-01-18T18:11:44.482Z,71.61
2019-01-18T18:15:15.096Z,71.85
2019-01-18T18:18:27.793Z,71.39
2019-01-18T18:22:27.021Z,71.15
2019-01-18T18:25:55.696Z,71.72
2019-01-18T18:29:31.339Z,71.63
2019-01-18T18:32:48.550Z,71.86
2019-01-18T18:36:05.358Z,72.17
2019-01-18T18:39:37.463Z,72.05
2019-01-18T18:42:40.506Z,71.99
2019-01-18T18:46:22.377Z,72.29
2019-01-18T18:49:54.447Z,72.33
2019-01-18T18:53:05.553Z,72.56
2019-01-18T18:56:30.871Z,72.52
2019-01-18T19:00:03.911Z,72.81
2019-01-18T19:03:42.678Z,72.88
2019-01-18T19:07:09.067Z,73.07
2019-01-18T19:10:39.354Z,73.15
2019-01-18T19:14:35.859Z,73.48
2019-01-18T19:18:04.981Z,73.35
2019-01-18T19:21:25.642Z,73.52
2019-01-18T19:25:09.414Z,73.95
2019-01-18T19:28:30.306Z,73.86
2019-01-18T19:32:05.790Z,74.17
2019-01-18T19:35:50.762Z,74.17
2019-01-18T19:39:22.460Z,75.60
2019-01-18T19:42:36.390Z,74.64
2019-01-18T19:46:06.630Z,75.16
2019-01-18T19:49:44.596Z,75.80
2019-01-18T19:53:22.839Z,75.56
2019-01-18T19:56:34.659Z,75.76
2019-01-18T19:59:43.597Z,76.20
2019-01-18T20:02:55.098Z,75.50
2019-01-18T20:06:37.592Z,75.07
2019-01-18T20:10:13.668Z,74.91
2019-01-18T20:13:59.955Z,75.16
2019-01-18T20:17:05.118Z,74.97
2019-01-18T20:20:22.458Z,75.14
2019-01-18T20:23:48.944Z,74.95
2019-01-18T20:26:42.856Z,75.14
2019-01-18T20:30:19.370Z,74.89
2019-01-18T20:34:00.370Z,74.78
2019-01-18T20:37:24.399Z,75.02
2019-01-18T20:41:15.590Z,74.60
2019-01-18T20:44:21.111Z,74.77
2019-01-18T20:47:35.948Z,74.66
2019-01-18T20:51:04.320Z,75.00
2019-01-18T20:54:59.155Z,74.94
2019-01-18T20:58:10.317Z,74.52
2019-01-18T21:01:46.499Z,74.36
2019-01-18T21:05:15.180Z,74.14
2019-01-18T21:08:14.325Z,74.01
2019-01-18T21:11:21.618Z,74.73
2019-01-18T21:14:26.295Z,74.14
2019-01-18T21:17:41.120Z,73.64
2019-01-18T21:21:29.367Z,73.56
2019-01-18T21:25:05.318Z,73.84
2019-01-18T21:28:30.272Z,73.86
2019-01-18T21:32:29.126Z,74.03
2019-01-18T21:35:26.350Z,74.10
2019-01-18T21:38:51.568Z,74.34
2019-01-18T21:42:15.598Z,74.32
2019-01-18T21:46:03.499Z,74.44
2019-01-18T21:49:25.990Z,74.37
2019-01-18T21:53:06.814Z,74.75
2019-01-18T21:56:27.580Z,75.54
2019-01-18T21:59:35.355Z,76.19
2019-01-18T22:03:03.493Z,75.24
2019-01-18T22:06:14.944Z,75.03
2019-01-18T22:09:41.718Z,74.79
2019-01-18T22:13:09.395Z,75.23
2019-01-18T22:16:48.560Z,74.96
2019-01-18T22:20:47.771Z,75.03
2019-01-18T22:23:58.884Z,74.94
2019-01-18T22:27:33.665Z,75.28
2019-01-18T22:31:02.235Z,75.49
2019-01-18T22:33:55.498Z,75.49
2019-01-18T22:37:22.379Z,75.53
2019-01-18T22:40:43.525Z,75.10
2019-01-18T22:44:04.513Z,75.28
2019-01-18T22:47:26.942Z,75.46
2019-01-18T22:50:31.079Z,75.73
2019-01-18T22:53:47.471Z,75.63
2019-01-18T22:57:08.275Z,76.01
2019-01-18T23:00:42.261Z,76.29
2019-01-18T23:04:20.209Z,76.45
2019-01-18T23:07:41.723Z,76.34
2019-01-18T23:11:21.766Z,76.58
2019-01-18T23:14:54.598Z,76.43
2019-01-18T23:17:50.458Z,76.31
2019-01-18T23:21:29.799Z,76.24
2019-01-18T23:24:37.915Z,76.65
2019-01-18T23:28:33.808Z,76.68
2019-01-18T23:31:35.393Z,76.78
2019-01-18T23:34:34.153Z,76.78
2019-01-18T23:37:44.455Z,76.78
2019-01-18T23:41:20.796Z,77.03
2019-01-18T23:45:05.233Z,76.84
2019-01-18T23:48:22.913Z,76.82
2019-01-18T23:52:02.407Z,76.70
2019-01-18T23:55:35.956Z,76.87
2019-01-18T23:59:14.755Z,76.86
